Time;durP1;ratioP1;P1;durP2;ratioP2;P2;SDS_P1;SDS_P2;PMS_P1;PMS_P2;Temp;Humidity;BMP_temperature;BMP_pressure;BME280_temperature;BME280_humidity;BME280_pressure;Samples;Min_cycle;Max_cycle;Signal;HPM_P1;HPM_P2
2022/04/27 00:00:38;;;;;;;14.80;7.15;;;9.10;99.90;;;;;;5073336;28;20131;-62
2022/04/27 00:03:05;;;;;;;10.98;6.20;;;9.10;99.90;;;;;;5073685;28;20116;-62
2022/04/27 00:05:32;;;;;;;10.55;6.25;;;9.10;99.90;;;;;;5055326;28;20047;-62
2022/04/27 00:07:57;;;;;;;9.55;5.38;;;9.10;99.90;;;;;;5072223;28;20057;-62
2022/04/27 00:10:23;;;;;;;11.88;5.05;;;9.20;99.90;;;;;;5073676;28;20386;-63
2022/04/27 00:12:50;;;;;;;9.38;4.90;;;9.10;99.90;;;;;;5073191;28;20048;-62
2022/04/27 00:15:17;;;;;;;14.02;5.10;;;9.20;99.90;;;;;;5073543;28;20052;-61
2022/04/27 00:17:42;;;;;;;14.38;5.38;;;9.10;99.90;;;;;;5071698;28;20048;-61
2022/04/27 00:20:08;;;;;;;9.95;5.15;;;9.10;99.90;;;;;;5072171;28;20145;-62
2022/04/27 00:22:36;;;;;;;13.35;5.90;;;9.10;99.90;;;;;;5073010;28;20055;-61
2022/04/27 00:25:04;;;;;;;9.02;5.32;;;9.10;99.90;;;;;;5073346;28;20175;-62
2022/04/27 00:27:30;;;;;;;10.27;4.78;;;9.10;99.90;;;;;;5054676;28;20055;-62
2022/04/27 00:29:57;;;;;;;12.27;5.40;;;9.10;99.90;;;;;;5073127;28;20047;-62
2022/04/27 00:32:23;;;;;;;10.98;5.85;;;9.10;99.90;;;;;;5055634;28;20397;-62
2022/04/27 00:34:48;;;;;;;13.52;5.55;;;9.10;99.90;;;;;;5072396;28;20044;-62
2022/04/27 00:37:14;;;;;;;10.88;5.63;;;9.10;99.90;;;;;;5072987;28;20048;-62
2022/04/27 00:39:40;;;;;;;13.05;5.60;;;9.10;99.90;;;;;;5072407;28;20043;-61
2022/04/27 00:42:21;;;;;;;12.88;5.32;;;9.10;99.90;;;;;;5072948;28;20044;-61
2022/04/27 00:44:48;;;;;;;10.27;5.82;;;9.10;99.90;;;;;;5072415;28;20032;-62
2022/04/27 00:47:15;;;;;;;10.68;5.55;;;9.10;99.90;;;;;;5072908;28;20405;-62
2022/04/27 00:49:43;;;;;;;8.60;5.55;;;9.10;99.90;;;;;;5072329;28;20048;-63
2022/04/27 00:52:13;;;;;;;13.20;5.43;;;9.00;99.90;;;;;;5071911;28;20127;-61
2022/04/27 00:54:44;;;;;;;14.32;5.50;;;9.00;99.90;;;;;;5071336;28;20586;-62
2022/04/27 00:57:10;;;;;;;10.27;5.40;;;9.00;99.90;;;;;;5072770;28;20060;-62
2022/04/27 00:59:36;;;;;;;10.80;5.70;;;9.00;99.90;;;;;;5054389;28;20045;-62
2022/04/27 01:02:05;;;;;;;12.20;5.78;;;8.90;99.90;;;;;;5054815;28;20139;-63
2022/04/27 01:04:36;;;;;;;12.00;5.57;;;8.90;99.90;;;;;;5072448;28;20123;-66
2022/04/27 01:07:03;;;;;;;8.77;5.47;;;8.90;99.90;;;;;;5072468;28;20101;-63
2022/04/27 01:09:30;;;;;;;12.77;5.70;;;8.90;99.90;;;;;;5054462;28;20056;-62
2022/04/27 01:11:57;;;;;;;9.32;5.40;;;8.90;99.90;;;;;;5070748;28;20105;-63
2022/04/27 01:14:23;;;;;;;13.35;5.65;;;8.90;99.90;;;;;;5071394;28;20059;-63
2022/04/27 01:16:57;;;;;;;10.95;5.18;;;8.90;99.90;;;;;;5054368;28;20480;-63
2022/04/27 01:19:26;;;;;;;12.88;6.15;;;8.90;99.90;;;;;;5072222;28;20063;-63
2022/04/27 01:21:53;;;;;;;10.40;5.03;;;8.90;99.90;;;;;;5072054;28;20101;-63
2022/04/27 01:24:20;;;;;;;8.80;5.35;;;8.90;99.90;;;;;;5072190;28;20052;-62
2022/04/27 01:26:48;;;;;;;10.05;5.20;;;8.90;99.90;;;;;;5070733;28;20105;-63
2022/04/27 01:29:24;;;;;;;11.20;5.13;;;8.90;99.90;;;;;;5070904;28;20491;-62
2022/04/27 01:31:51;;;;;;;9.50;5.15;;;8.80;99.90;;;;;;5070971;28;20084;-63
2022/04/27 01:34:17;;;;;;;14.90;5.07;;;8.90;99.90;;;;;;5071920;28;20483;-63
2022/04/27 01:36:43;;;;;;;9.57;5.13;;;8.90;99.90;;;;;;5071456;28;20044;-62
2022/04/27 01:39:08;;;;;;;8.43;5.10;;;8.90;99.90;;;;;;5070566;28;20044;-63
2022/04/27 01:41:36;;;;;;;8.00;5.07;;;8.90;99.90;;;;;;5070843;28;20043;-63
2022/04/27 01:44:05;;;;;;;8.95;4.95;;;8.80;99.90;;;;;;5070535;28;20131;-63
2022/04/27 01:46:31;;;;;;;9.77;4.72;;;8.90;99.90;;;;;;5071266;28;20172;-62
2022/04/27 01:48:57;;;;;;;14.55;4.90;;;8.80;99.90;;;;;;5069963;28;20379;-63
2022/04/27 01:54:15;;;;;;;7.03;5.07;;;8.80;99.90;;;;;;5070769;28;20557;-62
2022/04/27 01:54:15;;;;;;;6.82;4.55;;;8.80;99.90;;;;;;5071649;28;20552;-62
2022/04/27 01:56:49;;;;;;;8.02;4.65;;;8.90;99.90;;;;;;5071334;28;20131;-63
2022/04/27 01:59:15;;;;;;;10.75;4.80;;;8.80;99.90;;;;;;5071653;28;20044;-63
2022/04/27 02:01:42;;;;;;;11.80;4.43;;;8.80;99.90;;;;;;5069870;28;20488;-62
2022/04/27 02:04:08;;;;;;;7.90;3.95;;;8.80;99.90;;;;;;5071471;28;20044;-62
2022/04/27 02:06:36;;;;;;;6.18;4.03;;;8.90;99.90;;;;;;5071297;28;20056;-63
2022/04/27 02:09:04;;;;;;;12.00;4.88;;;8.80;99.90;;;;;;5070959;28;20043;-62
2022/04/27 02:11:30;;;;;;;6.72;4.30;;;8.80;99.90;;;;;;5071374;28;20185;-62
2022/04/27 02:13:56;;;;;;;10.05;3.97;;;8.80;99.90;;;;;;5070963;28;20049;-62
2022/04/27 02:16:25;;;;;;;6.30;4.32;;;8.80;99.90;;;;;;5071396;28;20504;-63
2022/04/27 02:18:52;;;;;;;10.57;4.45;;;8.80;99.90;;;;;;5071111;28;20044;-63
2022/04/27 02:21:18;;;;;;;12.18;4.60;;;8.70;99.90;;;;;;5071574;28;20135;-63
2022/04/27 02:23:47;;;;;;;13.45;5.25;;;8.80;99.90;;;;;;5069961;28;20071;-63
2022/04/27 02:26:12;;;;;;;9.45;4.70;;;8.70;99.90;;;;;;5071503;28;20505;-62
2022/04/27 02:28:38;;;;;;;7.15;4.45;;;8.80;99.90;;;;;;5071368;28;20044;-64
2022/04/27 02:31:04;;;;;;;5.70;4.30;;;8.70;99.90;;;;;;5069858;28;20098;-62
2022/04/27 02:33:31;;;;;;;9.00;4.57;;;8.80;99.90;;;;;;5071047;28;20087;-62
2022/04/27 02:35:57;;;;;;;7.32;4.30;;;8.70;99.90;;;;;;5052936;28;20205;-62
2022/04/27 02:38:23;;;;;;;7.50;4.47;;;8.70;99.90;;;;;;5069932;28;20436;-62
2022/04/27 02:40:48;;;;;;;6.95;4.45;;;8.80;99.90;;;;;;5070795;28;20097;-62
2022/04/27 02:43:15;;;;;;;7.40;3.67;;;8.70;99.90;;;;;;5070916;28;20139;-61
2022/04/27 02:45:41;;;;;;;8.13;3.92;;;8.70;99.90;;;;;;5070906;28;20060;-62
2022/04/27 02:48:07;;;;;;;7.95;3.90;;;8.80;99.90;;;;;;5070603;28;20669;-62
2022/04/27 02:53:18;;;;;;;5.95;3.85;;;8.80;99.90;;;;;;5070712;28;20049;-61
2022/04/27 02:55:44;;;;;;;7.30;3.63;;;8.80;99.90;;;;;;5069148;28;20106;-66
2022/04/27 02:58:10;;;;;;;9.50;3.95;;;8.90;99.90;;;;;;5070877;28;20056;-63
2022/04/27 03:00:36;;;;;;;7.75;3.78;;;8.80;99.90;;;;;;5070028;28;20466;-63
2022/04/27 03:03:03;;;;;;;6.63;3.75;;;8.80;99.90;;;;;;5070651;28;20089;-63
2022/04/27 03:05:29;;;;;;;5.32;3.60;;;8.80;99.90;;;;;;5069670;28;20423;-61
2022/04/27 03:07:54;;;;;;;7.97;3.72;;;8.80;99.90;;;;;;5069175;28;20040;-61
2022/04/27 03:10:20;;;;;;;7.75;3.92;;;8.80;99.90;;;;;;5069658;28;20052;-63
2022/04/27 03:12:46;;;;;;;5.70;3.88;;;8.80;99.90;;;;;;5071050;28;20490;-67
2022/04/27 03:15:11;;;;;;;9.15;3.92;;;8.80;99.90;;;;;;5069407;28;20045;-62
2022/04/27 03:17:37;;;;;;;6.35;3.83;;;8.80;99.90;;;;;;5072282;28;20484;-62
2022/04/27 03:20:04;;;;;;;7.05;3.95;;;8.80;99.90;;;;;;5040004;28;20048;-63
2022/04/27 03:22:30;;;;;;;10.27;4.07;;;8.80;99.90;;;;;;5074737;28;20052;-62
2022/04/27 03:24:56;;;;;;;7.57;4.20;;;8.80;99.90;;;;;;5074264;28;20047;-62
2022/04/27 03:27:21;;;;;;;8.73;4.07;;;8.80;99.90;;;;;;5074734;28;20045;-62
2022/04/27 03:29:47;;;;;;;9.60;4.00;;;8.70;99.90;;;;;;5056597;28;20548;-62
2022/04/27 03:32:13;;;;;;;7.20;4.15;;;8.70;99.90;;;;;;5073292;28;20087;-62
2022/04/27 03:34:38;;;;;;;7.13;3.90;;;8.70;99.90;;;;;;5074247;28;20040;-62
2022/04/27 03:37:04;;;;;;;4.85;3.33;;;8.70;99.90;;;;;;5073825;28;20094;-62
2022/04/27 03:39:30;;;;;;;8.95;4.65;;;8.70;99.90;;;;;;5074289;28;20123;-63
2022/04/27 03:41:57;;;;;;;5.47;3.90;;;8.70;99.90;;;;;;5056161;28;20051;-62
2022/04/27 03:44:23;;;;;;;9.50;3.80;;;8.80;99.90;;;;;;5073756;28;20405;-62
2022/04/27 03:46:49;;;;;;;6.50;3.83;;;8.80;99.90;;;;;;5073856;28;20144;-64
2022/04/27 03:49:14;;;;;;;6.43;3.95;;;8.80;99.90;;;;;;5073584;28;20132;-63
2022/04/27 03:51:40;;;;;;;6.63;3.72;;;8.70;99.90;;;;;;5056279;28;20055;-62
2022/04/27 03:54:06;;;;;;;8.65;4.30;;;8.70;99.90;;;;;;5073556;28;20044;-62
2022/04/27 03:56:32;;;;;;;7.03;3.97;;;8.70;99.90;;;;;;5072945;28;20406;-62
2022/04/27 03:58:57;;;;;;;6.43;3.85;;;8.70;99.90;;;;;;5073427;28;20070;-62
2022/04/27 04:01:24;;;;;;;4.80;3.58;;;8.70;99.90;;;;;;5072732;28;20135;-62
2022/04/27 04:03:49;;;;;;;4.97;3.50;;;8.70;99.90;;;;;;5072643;28;20086;-62
2022/04/27 04:06:15;;;;;;;10.15;3.65;;;8.70;99.90;;;;;;5072109;28;20052;-62
2022/04/27 04:08:41;;;;;;;8.38;4.22;;;8.70;99.90;;;;;;5073752;28;20113;-63
2022/04/27 04:11:07;;;;;;;5.43;3.78;;;8.70;99.90;;;;;;5072294;28;20431;-61
2022/04/27 04:13:33;;;;;;;5.45;3.55;;;8.70;99.90;;;;;;5055677;28;20105;-62
2022/04/27 04:15:58;;;;;;;5.63;3.20;;;8.70;99.90;;;;;;5055457;28;20131;-61
2022/04/27 04:18:24;;;;;;;6.38;3.75;;;8.70;99.90;;;;;;5073502;28;20068;-62
2022/04/27 04:20:50;;;;;;;5.70;3.60;;;8.70;99.90;;;;;;5055649;28;20474;-63
2022/04/27 04:23:15;;;;;;;5.43;2.80;;;8.70;99.90;;;;;;5073326;28;20123;-63
2022/04/27 04:28:31;;;;;;;8.60;3.30;;;8.70;99.90;;;;;;5057599;28;20399;-62
2022/04/27 04:31:04;;;;;;;6.55;3.28;;;8.80;99.90;;;;;;5071938;28;20040;-65
2022/04/27 04:33:30;;;;;;;8.93;3.78;;;8.70;99.90;;;;;;5071810;28;20052;-62
2022/04/27 04:35:57;;;;;;;6.25;3.22;;;8.80;99.90;;;;;;5071593;28;20037;-65
2022/04/27 04:38:23;;;;;;;4.43;3.10;;;8.70;99.90;;;;;;5071872;28;20037;-61
2022/04/27 04:40:50;;;;;;;5.82;3.40;;;8.70;99.90;;;;;;5072998;28;20402;-63
2022/04/27 04:43:15;;;;;;;6.07;3.42;;;8.70;99.90;;;;;;5072630;28;20140;-62
2022/04/27 04:45:42;;;;;;;4.72;3.03;;;8.70;99.90;;;;;;5055065;28;20131;-63
2022/04/27 04:48:08;;;;;;;7.00;3.58;;;8.70;99.90;;;;;;5072697;28;20205;-63
2022/04/27 04:50:35;;;;;;;5.28;3.33;;;8.80;99.90;;;;;;5071843;28;20040;-63
2022/04/27 04:53:01;;;;;;;5.43;3.40;;;8.80;99.90;;;;;;5072637;28;20105;-64
2022/04/27 04:55:27;;;;;;;4.53;3.22;;;8.70;99.90;;;;;;5072900;28;20064;-63
2022/04/27 04:57:53;;;;;;;8.70;3.58;;;8.80;99.90;;;;;;5072805;28;20101;-63
2022/04/27 05:00:19;;;;;;;7.30;3.78;;;8.70;99.90;;;;;;5072271;28;20055;-62
2022/04/27 05:02:44;;;;;;;6.47;3.38;;;8.70;99.90;;;;;;5072724;28;20131;-62
2022/04/27 05:05:10;;;;;;;5.18;3.60;;;8.70;99.90;;;;;;5072266;28;20048;-62
2022/04/27 05:07:36;;;;;;;5.80;3.50;;;8.70;99.90;;;;;;5071543;28;20045;-64
2022/04/27 05:10:01;;;;;;;7.22;3.45;;;8.70;99.90;;;;;;5070726;28;20482;-66
2022/04/27 05:12:27;;;;;;;5.10;3.22;;;8.70;99.90;;;;;;5071388;28;20056;-63
2022/04/27 05:14:53;;;;;;;6.93;3.30;;;8.70;99.90;;;;;;5072510;28;20434;-62
2022/04/27 05:17:20;;;;;;;9.30;3.38;;;8.70;99.90;;;;;;5071644;28;20044;-63
2022/04/27 05:19:48;;;;;;;7.43;3.45;;;8.80;99.90;;;;;;5070472;28;20640;-63
2022/04/27 05:22:14;;;;;;;6.53;3.35;;;8.70;99.90;;;;;;5071865;28;20040;-62
2022/04/27 05:24:40;;;;;;;6.65;3.75;;;8.80;99.90;;;;;;5054446;28;20059;-62
2022/04/27 05:27:06;;;;;;;5.50;3.08;;;8.80;99.90;;;;;;5054148;28;20047;-63
2022/04/27 05:32:16;;;;;;;5.35;3.08;;;9.00;99.90;;;;;;5071773;28;20137;-63
2022/04/27 05:34:41;;;;;;;4.90;2.90;;;9.00;99.90;;;;;;5070877;28;20537;-63
2022/04/27 05:37:07;;;;;;;5.97;3.40;;;9.00;99.90;;;;;;5071635;28;20189;-62
2022/04/27 05:39:33;;;;;;;5.68;3.13;;;9.10;99.90;;;;;;5070399;28;20094;-63
2022/04/27 05:42:02;;;;;;;9.35;3.40;;;9.10;99.90;;;;;;5070270;28;20481;-63
2022/04/27 05:44:27;;;;;;;6.55;3.30;;;9.10;99.90;;;;;;5071191;28;20048;-61
2022/04/27 05:46:55;;;;;;;5.50;3.08;;;9.20;99.90;;;;;;5071882;28;20053;-62
2022/04/27 05:49:20;;;;;;;7.10;3.03;;;9.20;99.90;;;;;;5071197;28;20040;-62
2022/04/27 05:51:47;;;;;;;5.93;3.08;;;9.20;99.90;;;;;;5070280;28;20455;-62
2022/04/27 05:54:14;;;;;;;6.03;3.08;;;9.20;99.90;;;;;;5069957;28;20057;-63
2022/04/27 05:56:43;;;;;;;6.55;3.10;;;9.30;99.90;;;;;;5070301;28;20113;-62
2022/04/27 05:59:13;;;;;;;5.03;3.10;;;9.30;99.90;;;;;;5053349;28;20098;-66
2022/04/27 06:01:38;;;;;;;8.07;3.38;;;9.30;99.90;;;;;;5053653;28;20070;-62
2022/04/27 06:04:04;;;;;;;6.60;2.90;;;9.30;99.90;;;;;;5070254;28;20051;-62
2022/04/27 06:06:31;;;;;;;8.70;3.47;;;9.40;99.90;;;;;;5071061;28;20042;-62
2022/04/27 06:08:56;;;;;;;4.55;2.70;;;9.40;99.90;;;;;;5070232;28;20541;-63
2022/04/27 06:11:22;;;;;;;5.82;2.55;;;9.40;99.90;;;;;;5069743;28;20123;-63
2022/04/27 06:13:48;;;;;;;3.92;2.72;;;9.40;99.90;;;;;;5071377;28;20051;-62
2022/04/27 06:16:14;;;;;;;5.45;2.72;;;9.40;99.90;;;;;;5069857;28;20432;-62
2022/04/27 06:18:41;;;;;;;4.20;1.92;;;9.40;99.90;;;;;;5071289;28;20060;-63
2022/04/27 06:21:08;;;;;;;5.38;1.90;;;9.40;99.90;;;;;;5071319;28;20041;-62
2022/04/27 06:23:34;;;;;;;4.32;2.42;;;9.40;99.90;;;;;;5053056;28;20071;-63
2022/04/27 06:26:00;;;;;;;4.60;2.10;;;9.50;99.90;;;;;;5053502;28;20397;-64
2022/04/27 06:28:26;;;;;;;11.38;2.88;;;9.40;99.90;;;;;;5036053;28;20046;-62
2022/04/27 06:30:52;;;;;;;7.40;2.80;;;9.50;99.90;;;;;;5053418;28;20119;-63
2022/04/27 06:33:18;;;;;;;10.60;2.97;;;9.50;99.90;;;;;;5069374;28;20052;-61
2022/04/27 06:35:44;;;;;;;6.82;2.80;;;9.50;99.90;;;;;;5069614;28;20052;-62
2022/04/27 06:38:10;;;;;;;6.35;2.53;;;9.60;99.90;;;;;;5052871;28;20055;-63
2022/04/27 06:40:36;;;;;;;7.30;2.63;;;9.60;99.90;;;;;;5069381;28;20055;-61
2022/04/27 06:43:02;;;;;;;6.47;2.20;;;9.60;99.90;;;;;;5069384;28;20053;-62
2022/04/27 06:45:28;;;;;;;4.55;2.40;;;9.60;99.90;;;;;;5068459;28;20517;-62
2022/04/27 06:47:57;;;;;;;5.65;2.42;;;9.60;99.90;;;;;;5070550;28;20117;-63
2022/04/27 06:50:23;;;;;;;5.53;2.40;;;9.70;99.90;;;;;;5069147;28;20051;-62
2022/04/27 06:52:49;;;;;;;4.15;1.88;;;9.70;99.90;;;;;;5071601;28;20041;-62
2022/04/27 06:55:17;;;;;;;5.63;2.35;;;9.80;99.90;;;;;;5074790;28;20469;-66
2022/04/27 06:57:43;;;;;;;4.13;2.03;;;9.80;99.90;;;;;;5075020;28;20076;-63
2022/04/27 07:00:10;;;;;;;5.72;2.20;;;9.80;99.90;;;;;;5075036;28;20394;-63
2022/04/27 07:02:36;;;;;;;5.63;1.98;;;9.80;99.90;;;;;;5074420;28;20652;-63
2022/04/27 07:05:03;;;;;;;5.82;2.28;;;9.90;99.90;;;;;;5073773;28;20071;-61
2022/04/27 07:07:29;;;;;;;4.05;1.92;;;9.90;99.90;;;;;;5074104;28;20047;-61
2022/04/27 07:09:56;;;;;;;3.22;2.15;;;9.90;99.90;;;;;;5056750;28;20048;-62
2022/04/27 07:12:23;;;;;;;4.80;1.85;;;10.00;99.90;;;;;;5056228;28;20430;-62
2022/04/27 07:14:50;;;;;;;6.90;2.20;;;10.00;99.90;;;;;;5074639;28;20040;-63
2022/04/27 07:17:17;;;;;;;5.50;2.33;;;9.90;99.90;;;;;;5074527;28;20409;-62
2022/04/27 07:19:44;;;;;;;8.45;2.15;;;9.90;99.90;;;;;;5074582;28;20132;-62
2022/04/27 07:22:10;;;;;;;4.65;2.00;;;10.00;99.90;;;;;;5074420;28;20394;-63
2022/04/27 07:24:37;;;;;;;4.35;2.20;;;10.00;99.90;;;;;;5074039;28;20048;-63
2022/04/27 07:27:06;;;;;;;4.32;1.90;;;10.00;99.90;;;;;;5073349;28;20131;-63
2022/04/27 07:29:32;;;;;;;4.97;1.88;;;10.10;99.90;;;;;;5055801;28;20110;-63
2022/04/27 07:32:01;;;;;;;5.57;2.15;;;10.10;99.90;;;;;;5072882;28;20075;-62
2022/04/27 07:34:27;;;;;;;7.22;2.30;;;10.10;99.90;;;;;;5073668;28;20052;-61
2022/04/27 07:36:53;;;;;;;6.15;2.47;;;10.20;99.90;;;;;;5073712;28;20131;-62
2022/04/27 07:39:19;;;;;;;6.38;2.13;;;10.20;99.90;;;;;;5056236;28;20135;-62
2022/04/27 07:41:45;;;;;;;4.32;1.90;;;10.20;99.90;;;;;;5073358;28;20597;-63
2022/04/27 07:44:11;;;;;;;4.15;1.88;;;10.30;99.90;;;;;;5074079;28;20090;-63
2022/04/27 07:46:37;;;;;;;5.35;2.00;;;10.20;99.90;;;;;;5073452;28;20066;-63
2022/04/27 07:49:03;;;;;;;6.90;2.13;;;10.20;99.90;;;;;;5072677;28;20486;-62
2022/04/27 07:51:29;;;;;;;4.53;2.00;;;10.20;99.90;;;;;;5073606;28;20109;-62
2022/04/27 07:53:54;;;;;;;5.25;1.90;;;10.30;99.90;;;;;;5072717;28;20048;-61
2022/04/27 07:56:20;;;;;;;4.47;2.17;;;10.30;99.90;;;;;;5072789;28;20040;-63
2022/04/27 07:58:46;;;;;;;6.97;2.20;;;10.30;99.90;;;;;;5072266;28;20055;-63
2022/04/27 08:01:11;;;;;;;8.20;2.60;;;10.30;99.90;;;;;;5073590;28;20045;-61
2022/04/27 08:03:37;;;;;;;6.53;2.70;;;10.30;99.90;;;;;;5055151;28;20048;-61
2022/04/27 08:06:04;;;;;;;6.18;3.00;;;10.30;99.90;;;;;;5072466;28;20051;-66
2022/04/27 08:08:33;;;;;;;8.93;2.70;;;10.30;99.90;;;;;;5070545;28;20490;-62
2022/04/27 08:10:59;;;;;;;9.38;2.78;;;10.20;99.90;;;;;;5072354;28;20564;-63
2022/04/27 08:13:24;;;;;;;9.55;2.92;;;10.20;99.90;;;;;;5072587;28;20041;-66
2022/04/27 08:15:50;;;;;;;9.95;2.70;;;10.20;99.90;;;;;;5072684;28;20110;-61
2022/04/27 08:18:16;;;;;;;12.82;3.03;;;10.10;99.90;;;;;;5071470;28;20044;-64
2022/04/27 08:23:29;;;;;;;9.35;3.30;;;10.10;99.90;;;;;;5071137;28;20052;-64
2022/04/27 08:25:58;;;;;;;8.95;2.88;;;10.10;99.90;;;;;;5071432;28;20386;-62
2022/04/27 08:28:24;;;;;;;6.63;2.85;;;10.10;99.90;;;;;;5071032;28;20438;-63
2022/04/27 08:30:50;;;;;;;9.98;3.00;;;10.10;99.90;;;;;;5071666;28;20055;-62
2022/04/27 08:33:17;;;;;;;9.75;3.33;;;10.20;99.90;;;;;;5072347;28;20133;-61
2022/04/27 08:35:43;;;;;;;11.13;3.22;;;10.20;99.90;;;;;;5071197;28;20045;-62
2022/04/27 08:38:10;;;;;;;10.07;3.10;;;10.30;99.90;;;;;;5071877;28;20045;-62
2022/04/27 08:40:37;;;;;;;10.80;3.30;;;10.30;99.90;;;;;;5071262;28;20414;-63
2022/04/27 08:43:03;;;;;;;13.40;3.00;;;10.40;99.90;;;;;;5071541;28;20132;-61
2022/04/27 08:45:30;;;;;;;11.57;3.30;;;10.40;99.90;;;;;;5070827;28;20127;-65
2022/04/27 08:47:56;;;;;;;10.23;3.00;;;10.30;99.90;;;;;;5073010;28;20512;-62
2022/04/27 08:50:24;;;;;;;15.02;3.97;;;10.30;99.90;;;;;;5073227;28;20048;-64
2022/04/27 08:52:51;;;;;;;11.82;3.28;;;10.20;99.90;;;;;;5072772;28;20455;-63
2022/04/27 08:55:18;;;;;;;12.52;3.50;;;10.30;99.90;;;;;;5072898;28;20048;-63
2022/04/27 08:57:44;;;;;;;11.07;3.50;;;10.20;99.90;;;;;;5072561;28;20044;-62
2022/04/27 09:00:14;;;;;;;13.00;3.85;;;10.30;99.90;;;;;;5073063;28;20080;-63
2022/04/27 09:02:40;;;;;;;8.20;2.92;;;10.30;99.90;;;;;;5071378;28;20053;-62
2022/04/27 09:05:09;;;;;;;9.32;2.92;;;10.30;99.90;;;;;;5071691;28;20067;-63
2022/04/27 09:07:41;;;;;;;9.77;2.78;;;10.30;99.90;;;;;;5071568;28;20081;-62
2022/04/27 09:10:09;;;;;;;10.57;2.90;;;10.30;99.90;;;;;;5071386;28;20641;-62
2022/04/27 09:12:38;;;;;;;13.27;2.92;;;10.30;99.90;;;;;;5054666;28;20127;-62
2022/04/27 09:15:07;;;;;;;8.95;3.10;;;10.30;99.90;;;;;;5070571;28;20407;-62
2022/04/27 09:23:19;;;;;;;10.55;3.20;;;10.40;99.90;;;;;;5072681;28;20125;-60
2022/04/27 09:25:45;;;;;;;14.05;3.40;;;10.40;99.90;;;;;;5071209;28;20052;-61
2022/04/27 09:28:11;;;;;;;9.95;3.05;;;10.30;99.90;;;;;;5054331;28;20052;-63
2022/04/27 09:30:36;;;;;;;13.20;2.75;;;10.30;99.90;;;;;;5070369;28;20051;-62
2022/04/27 09:33:02;;;;;;;11.40;2.58;;;10.20;99.90;;;;;;5071706;28;20053;-61
2022/04/27 09:35:36;;;;;;;9.63;3.53;;;10.20;99.90;;;;;;5070499;28;20044;-61
2022/04/27 09:38:21;;;;;;;14.45;3.38;;;10.30;99.90;;;;;;5069910;28;20656;-61
2022/04/27 09:40:47;;;;;;;;;;;10.30;99.90;;;;;;5070461;28;20060;-62
2022/04/27 09:43:16;;;;;;;10.93;3.03;;;10.30;99.90;;;;;;5070494;28;20359;-61
2022/04/27 09:45:43;;;;;;;12.68;3.17;;;10.30;99.90;;;;;;5053356;28;20044;-65
2022/04/27 09:48:17;;;;;;;10.43;2.88;;;10.30;99.90;;;;;;5070372;28;20063;-61
2022/04/27 09:50:55;;;;;;;11.57;2.70;;;10.40;99.90;;;;;;5071238;28;20074;-62
2022/04/27 09:53:21;;;;;;;12.13;3.20;;;10.30;99.90;;;;;;5071839;28;20045;-62
2022/04/27 09:55:50;;;;;;;13.35;2.95;;;10.40;99.90;;;;;;5071271;28;20088;-62
2022/04/27 09:58:18;;;;;;;8.40;2.70;;;10.30;99.90;;;;;;5071901;28;20079;-62
2022/04/27 10:00:45;;;;;;;9.05;2.58;;;10.20;99.90;;;;;;5070201;28;20448;-63
2022/04/27 10:03:14;;;;;;;12.27;3.03;;;10.20;99.90;;;;;;5070765;28;20059;-63
2022/04/27 10:05:40;;;;;;;9.07;3.22;;;10.20;99.90;;;;;;5070879;28;20044;-62
2022/04/27 10:08:08;;;;;;;14.00;3.13;;;10.20;99.90;;;;;;5071066;28;20398;-63
2022/04/27 10:10:41;;;;;;;13.82;3.38;;;10.20;99.90;;;;;;5071353;28;20044;-63
2022/04/27 10:13:13;;;;;;;10.13;3.40;;;10.30;99.90;;;;;;5071199;28;20056;-62
2022/04/27 10:15:43;;;;;;;8.15;2.58;;;10.30;99.90;;;;;;5070890;28;20083;-66
2022/04/27 10:18:15;;;;;;;9.05;2.45;;;10.40;99.90;;;;;;5070139;28;20048;-63
2022/04/27 10:20:41;;;;;;;14.25;2.92;;;10.40;99.90;;;;;;5070918;28;20127;-63
2022/04/27 10:23:32;;;;;;;11.40;3.25;;;10.40;99.90;;;;;;5070307;28;20523;-65
2022/04/27 10:26:18;;;;;;;13.15;2.88;;;10.40;99.90;;;;;;5052749;28;20284;-63
2022/04/27 10:28:56;;;;;;;13.02;3.28;;;10.50;99.90;;;;;;5069981;28;20041;-63
2022/04/27 10:31:42;;;;;;;11.13;2.97;;;10.50;99.90;;;;;;5070646;28;20438;-64
2022/04/27 10:34:21;;;;;;;9.63;2.90;;;10.50;99.90;;;;;;5070472;28;20056;-63
2022/04/27 10:36:48;;;;;;;10.75;2.92;;;10.40;99.90;;;;;;5071248;28;20048;-63
2022/04/27 10:39:16;;;;;;;7.75;2.92;;;10.50;99.90;;;;;;5071544;28;20083;-63
2022/04/27 10:42:03;;;;;;;10.63;3.20;;;10.40;99.90;;;;;;5071503;28;20040;-62
2022/04/27 10:44:50;;;;;;;11.88;3.00;;;10.40;99.90;;;;;;5071452;28;20090;-62
2022/04/27 10:47:20;;;;;;;10.63;2.90;;;10.40;99.90;;;;;;5070982;28;20053;-63
2022/04/27 10:49:47;;;;;;;11.95;2.83;;;10.40;99.90;;;;;;5069727;28;20048;-63
2022/04/27 10:52:14;;;;;;;11.15;2.58;;;10.50;99.90;;;;;;5071519;28;20139;-62
2022/04/27 10:54:41;;;;;;;8.80;2.63;;;10.60;99.90;;;;;;5070233;28;20091;-64
2022/04/27 10:57:19;;;;;;;11.18;3.10;;;10.70;99.90;;;;;;5070485;28;20121;-62
2022/04/27 10:59:49;;;;;;;10.85;3.58;;;10.70;99.90;;;;;;5071194;28;20048;-62
2022/04/27 11:02:37;;;;;;;9.82;3.10;;;10.70;99.90;;;;;;5071378;28;20044;-62
2022/04/27 11:05:12;;;;;;;8.95;3.20;;;10.60;99.90;;;;;;5070860;28;20059;-62
2022/04/27 11:08:09;;;;;;;13.05;2.78;;;10.70;99.90;;;;;;5070065;28;20060;-62
2022/04/27 11:10:39;;;;;;;10.32;3.20;;;10.70;99.90;;;;;;5071110;28;20080;-63
2022/04/27 11:13:08;;;;;;;11.73;3.10;;;10.80;99.90;;;;;;5069204;28;20517;-63
2022/04/27 11:15:34;;;;;;;12.18;3.03;;;10.90;99.90;;;;;;5069705;28;20398;-63
2022/04/27 11:18:03;;;;;;;8.45;2.90;;;10.90;99.90;;;;;;5070711;28;20051;-64
2022/04/27 11:20:35;;;;;;;10.18;2.88;;;10.90;99.90;;;;;;5071156;28;20189;-63
2022/04/27 11:23:06;;;;;;;6.47;2.53;;;11.00;99.90;;;;;;5069790;28;20410;-63
2022/04/27 11:25:35;;;;;;;8.18;3.00;;;11.10;99.90;;;;;;5071146;28;20402;-63
2022/04/27 11:28:02;;;;;;;11.65;3.00;;;11.10;99.90;;;;;;5052785;28;20131;-64
2022/04/27 11:30:30;;;;;;;11.38;3.38;;;11.10;99.90;;;;;;5070916;28;20106;-63
2022/04/27 11:32:56;;;;;;;8.63;2.47;;;11.20;99.90;;;;;;5070607;28;20045;-63
2022/04/27 11:35:23;;;;;;;12.10;3.17;;;11.20;99.90;;;;;;5071000;28;20048;-63
2022/04/27 11:37:56;;;;;;;11.82;2.60;;;11.20;99.90;;;;;;5070770;28;20378;-63
2022/04/27 11:40:25;;;;;;;11.48;2.63;;;11.20;99.90;;;;;;5073472;28;20086;-63
2022/04/27 11:42:51;;;;;;;11.48;2.55;;;11.30;99.90;;;;;;5074264;28;20051;-65
2022/04/27 11:45:20;;;;;;;12.85;2.83;;;11.30;99.90;;;;;;5073667;28;20052;-63
2022/04/27 11:47:59;;;;;;;9.88;2.83;;;11.30;99.90;;;;;;5074501;28;20071;-63
2022/04/27 11:50:36;;;;;;;9.18;3.10;;;11.30;99.90;;;;;;5074614;28;20044;-63
2022/04/27 11:53:04;;;;;;;10.70;2.67;;;11.40;99.90;;;;;;5073955;28;20139;-64
2022/04/27 11:55:32;;;;;;;10.65;3.90;;;11.40;99.90;;;;;;5073471;28;20080;-62
2022/04/27 11:57:58;;;;;;;9.27;3.00;;;11.40;99.90;;;;;;5073912;28;20048;-63
2022/04/27 12:00:28;;;;;;;10.30;2.90;;;11.50;99.90;;;;;;5074168;28;20429;-61
2022/04/27 12:03:03;;;;;;;16.83;3.70;;;11.50;99.90;;;;;;5072906;28;20055;-64
2022/04/27 12:05:36;;;;;;;6.50;2.70;;;11.60;99.90;;;;;;5074401;28;20093;-63
2022/04/27 12:08:09;;;;;;;9.65;2.97;;;11.60;99.90;;;;;;5073728;28;20068;-63
2022/04/27 12:10:39;;;;;;;8.10;2.70;;;11.80;99.90;;;;;;5074023;28;20045;-63
2022/04/27 12:13:06;;;;;;;8.65;2.38;;;11.80;99.90;;;;;;5072447;28;20047;-63
2022/04/27 12:15:32;;;;;;;7.90;2.70;;;11.90;99.90;;;;;;5073916;28;20053;-64
2022/04/27 12:17:58;;;;;;;6.03;2.28;;;11.90;99.90;;;;;;5073649;28;20055;-63
2022/04/27 12:20:34;;;;;;;8.43;2.50;;;11.90;99.90;;;;;;5074001;28;20060;-63
2022/04/27 12:23:07;;;;;;;12.25;2.72;;;12.00;99.90;;;;;;5073453;28;20131;-63
2022/04/27 12:25:59;;;;;;;9.23;2.85;;;12.10;99.90;;;;;;5073402;28;20080;-63
2022/04/27 12:28:29;;;;;;;6.25;2.25;;;12.10;99.90;;;;;;5071997;28;20518;-63
2022/04/27 12:31:02;;;;;;;7.60;2.42;;;12.10;99.90;;;;;;5055578;28;20098;-63
2022/04/27 12:33:32;;;;;;;12.30;3.22;;;12.20;99.90;;;;;;5073738;28;20060;-63
2022/04/27 12:38:58;;;;;;;8.18;3.00;;;12.30;99.90;;;;;;5073470;28;20054;-63
2022/04/27 12:41:37;;;;;;;7.75;2.47;;;12.40;99.90;;;;;;5073266;28;20045;-63
2022/04/27 12:44:06;;;;;;;9.70;3.10;;;12.40;99.80;;;;;;5073856;28;20052;-63
2022/04/27 12:46:32;;;;;;;10.98;3.30;;;12.50;99.70;;;;;;5072991;28;20102;-62
2022/04/27 12:49:03;;;;;;;9.02;2.75;;;12.50;99.30;;;;;;5071554;28;20367;-63
2022/04/27 12:51:31;;;;;;;7.13;2.72;;;12.50;99.60;;;;;;5073089;28;20115;-62
2022/04/27 12:53:57;;;;;;;9.18;2.53;;;12.40;99.30;;;;;;5072742;28;20044;-64
2022/04/27 12:56:31;;;;;;;7.68;2.70;;;12.30;99.60;;;;;;5072957;28;20081;-64
2022/04/27 12:59:08;;;;;;;8.88;2.75;;;12.20;99.90;;;;;;5072853;28;20398;-69
2022/04/27 13:01:35;;;;;;;9.00;3.10;;;12.20;99.90;;;;;;5072978;28;20363;-63
2022/04/27 13:04:01;;;;;;;9.27;2.60;;;12.30;99.90;;;;;;5072560;28;20084;-63
2022/04/27 13:06:30;;;;;;;10.77;2.50;;;12.40;99.90;;;;;;5071536;28;20148;-63
2022/04/27 13:11:57;;;;;;;7.82;2.58;;;12.30;99.90;;;;;;5072653;28;20044;-62
2022/04/27 13:14:25;;;;;;;11.45;2.60;;;12.30;99.90;;;;;;5071259;28;20378;-63
2022/04/27 13:16:52;;;;;;;9.38;2.95;;;12.40;99.90;;;;;;5071508;28;20355;-62